Time;durP1;ratioP1;P1;durP2;ratioP2;P2;SDS_P1;SDS_P2;PMS_P1;PMS_P2;Temp;Humidity;BMP_temperature;BMP_pressure;BME280_temperature;BME280_humidity;BME280_pressure;Samples;Min_cycle;Max_cycle;Signal;HPM_P1;HPM_P2
2022/12/10 00:01:50;;;;;;;13.33;11.20;;;;;;;;;;5060027;28;20195;-64
2022/12/10 00:04:18;;;;;;;12.37;10.40;;;;;;;;;;5066479;28;20215;-65
2022/12/10 00:06:45;;;;;;;13.27;11.10;;;;;;;;;;5059558;28;20199;-65
2022/12/10 00:09:13;;;;;;;16.40;11.53;;;;;;;;;;5062903;28;20203;-65
2022/12/10 00:11:42;;;;;;;15.70;11.80;;;;;;;;;;5060572;28;20216;-64
2022/12/10 00:14:09;;;;;;;12.30;10.77;;;;;;;;;;5062658;28;20261;-64
2022/12/10 00:16:37;;;;;;;13.63;11.33;;;;;;;;;;5059564;28;20205;-65
2022/12/10 00:19:04;;;;;;;15.47;11.63;;;;;;;;;;5054355;28;20203;-65
2022/12/10 00:21:33;;;;;;;13.77;11.67;;;;;;;;;;5059000;28;20203;-65
2022/12/10 00:24:00;;;;;;;15.57;12.20;;;;;;;;;;5061179;28;20226;-64
2022/12/10 00:26:28;;;;;;;12.40;10.77;;;;;;;;;;5060697;28;20207;-66
2022/12/10 00:28:57;;;;;;;14.63;11.03;;;;;;;;;;5061200;28;20207;-64
2022/12/10 00:31:26;;;;;;;13.43;11.30;;;;;;;;;;5055901;28;20200;-65
2022/12/10 00:33:54;;;;;;;13.73;11.00;;;;;;;;;;5064416;28;20207;-65
2022/12/10 00:36:23;;;;;;;14.40;11.80;;;;;;;;;;5063205;28;20205;-65
2022/12/10 00:38:51;;;;;;;13.70;11.07;;;;;;;;;;5060885;28;20208;-64
2022/12/10 00:41:18;;;;;;;13.27;11.53;;;;;;;;;;5058923;28;20233;-65
2022/12/10 00:43:46;;;;;;;15.50;12.00;;;;;;;;;;5060476;28;20328;-65
2022/12/10 00:46:15;;;;;;;17.67;13.03;;;;;;;;;;5059443;28;20210;-65
2022/12/10 00:48:43;;;;;;;15.87;12.93;;;;;;;;;;5065661;28;20211;-65
2022/12/10 00:51:11;;;;;;;15.53;12.43;;;;;;;;;;5055295;28;20222;-65
2022/12/10 00:53:39;;;;;;;14.50;11.83;;;;;;;;;;5059375;28;20198;-65
2022/12/10 00:56:06;;;;;;;15.30;11.77;;;;;;;;;;5062218;28;20202;-65
2022/12/10 00:58:34;;;;;;;12.83;11.33;;;;;;;;;;5061097;28;20210;-65
2022/12/10 01:01:08;;;;;;;15.73;11.43;;;;;;;;;;5058290;28;20249;-65
2022/12/10 01:03:37;;;;;;;13.43;11.10;;;;;;;;;;5059388;28;20215;-65
2022/12/10 01:06:11;;;;;;;13.03;10.03;;;;;;;;;;5065052;28;20195;-64
2022/12/10 01:08:38;;;;;;;12.03;9.83;;;;;;;;;;5064573;28;20242;-64
2022/12/10 01:11:06;;;;;;;12.17;10.20;;;;;;;;;;5056175;28;20203;-66
2022/12/10 01:13:33;;;;;;;11.73;10.10;;;;;;;;;;5061324;28;20198;-64
2022/12/10 01:16:01;;;;;;;14.03;11.30;;;;;;;;;;5072173;28;20209;-65
2022/12/10 01:18:29;;;;;;;12.80;11.23;;;;;;;;;;5061974;28;20200;-65
2022/12/10 01:21:01;;;;;;;12.47;10.37;;;;;;;;;;5060881;28;20200;-66
2022/12/10 01:23:28;;;;;;;12.13;10.70;;;;;;;;;;5059226;28;20278;-66
2022/12/10 01:25:55;;;;;;;14.43;11.30;;;;;;;;;;5066592;28;20222;-66
2022/12/10 01:28:22;;;;;;;13.03;11.00;;;;;;;;;;5060040;28;20200;-66
2022/12/10 01:30:50;;;;;;;11.13;9.93;;;;;;;;;;5063899;28;20207;-66
2022/12/10 01:33:17;;;;;;;14.03;10.80;;;;;;;;;;5065789;28;20221;-66
2022/12/10 01:35:44;;;;;;;10.57;9.33;;;;;;;;;;5068458;28;20198;-66
2022/12/10 01:38:12;;;;;;;11.87;10.43;;;;;;;;;;5068412;28;20194;-66
2022/12/10 01:40:40;;;;;;;13.87;11.00;;;;;;;;;;5062531;28;20203;-66
2022/12/10 01:43:07;;;;;;;14.00;10.87;;;;;;;;;;5060740;28;20194;-66
2022/12/10 01:45:34;;;;;;;13.37;11.20;;;;;;;;;;5060853;28;20219;-66
2022/12/10 01:48:01;;;;;;;13.03;10.20;;;;;;;;;;5070337;28;20206;-65
2022/12/10 01:50:29;;;;;;;13.67;10.37;;;;;;;;;;5064773;28;20211;-66
2022/12/10 01:52:56;;;;;;;13.27;10.70;;;;;;;;;;5057359;28;20209;-66
2022/12/10 01:55:44;;;;;;;13.17;10.27;;;;;;;;;;5057533;28;20207;-65
2022/12/10 01:58:12;;;;;;;12.07;10.00;;;;;;;;;;5061466;28;20199;-66
2022/12/10 02:00:46;;;;;;;14.07;10.53;;;;;;;;;;5059102;28;20206;-66
2022/12/10 02:03:20;;;;;;;13.83;10.57;;;;;;;;;;5059711;28;20203;-66
2022/12/10 02:05:52;;;;;;;12.03;9.43;;;;;;;;;;5062960;28;20210;-65
2022/12/10 02:08:21;;;;;;;12.50;10.20;;;;;;;;;;5062445;28;20214;-66
2022/12/10 02:10:56;;;;;;;10.90;9.70;;;;;;;;;;5069060;28;20199;-66
2022/12/10 02:13:24;;;;;;;12.57;9.43;;;;;;;;;;5067995;28;20203;-66
2022/12/10 02:15:53;;;;;;;10.63;9.20;;;;;;;;;;5060936;28;20200;-65
2022/12/10 02:18:22;;;;;;;10.97;8.87;;;;;;;;;;5062826;28;20203;-65
2022/12/10 02:20:51;;;;;;;12.23;9.40;;;;;;;;;;5059999;28;20207;-66
2022/12/10 02:23:20;;;;;;;11.70;9.43;;;;;;;;;;5057094;28;20195;-66
2022/12/10 02:25:54;;;;;;;13.10;9.60;;;;;;;;;;5058958;28;20226;-66
2022/12/10 02:28:27;;;;;;;11.57;9.20;;;;;;;;;;5066425;28;20205;-66
2022/12/10 02:30:56;;;;;;;11.53;9.97;;;;;;;;;;5063884;28;20230;-65
2022/12/10 02:33:24;;;;;;;12.97;9.50;;;;;;;;;;5062264;28;20199;-66
2022/12/10 02:35:52;;;;;;;10.57;9.20;;;;;;;;;;5061424;28;20205;-66
2022/12/10 02:38:21;;;;;;;11.40;9.40;;;;;;;;;;5064866;28;20194;-66
2022/12/10 02:40:51;;;;;;;14.73;10.13;;;;;;;;;;5061508;28;20214;-65
2022/12/10 02:43:18;;;;;;;13.83;9.77;;;;;;;;;;5069455;28;20226;-66
2022/12/10 02:45:46;;;;;;;12.60;9.27;;;;;;;;;;5059366;28;20223;-66
2022/12/10 02:48:15;;;;;;;13.33;9.77;;;;;;;;;;5062358;28;20191;-66
2022/12/10 02:50:42;;;;;;;13.37;9.97;;;;;;;;;;5057877;28;20206;-66
2022/12/10 02:53:09;;;;;;;11.00;9.47;;;;;;;;;;5059219;28;20233;-66
2022/12/10 02:55:44;;;;;;;13.63;9.80;;;;;;;;;;5061017;28;20195;-66
2022/12/10 02:58:17;;;;;;;10.97;9.63;;;;;;;;;;5063545;28;20207;-66
2022/12/10 03:00:49;;;;;;;12.33;10.30;;;;;;;;;;5061179;28;20203;-66
2022/12/10 03:03:23;;;;;;;11.10;9.83;;;;;;;;;;5058640;28;20207;-65
2022/12/10 03:05:54;;;;;;;12.83;10.50;;;;;;;;;;5063267;28;20206;-66
2022/12/10 03:08:24;;;;;;;11.33;9.57;;;;;;;;;;5070048;28;20230;-66
2022/12/10 03:10:54;;;;;;;11.77;9.83;;;;;;;;;;5061023;28;20277;-66
2022/12/10 03:13:24;;;;;;;13.10;9.73;;;;;;;;;;5063626;28;20205;-66
2022/12/10 03:15:52;;;;;;;11.67;10.20;;;;;;;;;;5063423;28;20210;-66
2022/12/10 03:18:23;;;;;;;11.90;10.30;;;;;;;;;;5056761;28;20203;-65
2022/12/10 03:20:52;;;;;;;14.63;10.97;;;;;;;;;;5066022;28;20205;-66
2022/12/10 03:23:20;;;;;;;13.00;10.27;;;;;;;;;;5065088;28;20202;-66
2022/12/10 03:25:48;;;;;;;12.53;10.47;;;;;;;;;;5055868;28;20230;-66
2022/12/10 03:28:16;;;;;;;15.90;10.97;;;;;;;;;;5059296;28;20203;-65
2022/12/10 03:30:44;;;;;;;14.47;11.10;;;;;;;;;;5061441;28;20220;-66
2022/12/10 03:33:11;;;;;;;12.37;10.40;;;;;;;;;;5060576;28;20195;-66
2022/12/10 03:35:41;;;;;;;14.87;10.63;;;;;;;;;;5062535;28;20195;-66
2022/12/10 03:38:08;;;;;;;14.97;10.57;;;;;;;;;;5061732;28;20199;-66
2022/12/10 03:40:35;;;;;;;11.43;9.17;;;;;;;;;;5062885;28;20210;-66
2022/12/10 03:43:02;;;;;;;12.80;11.33;;;;;;;;;;5065431;28;20235;-66
2022/12/10 03:45:30;;;;;;;13.30;9.90;;;;;;;;;;5054931;28;20359;-66
2022/12/10 03:47:57;;;;;;;12.63;10.03;;;;;;;;;;5065317;28;20195;-66
2022/12/10 03:50:24;;;;;;;10.80;9.67;;;;;;;;;;5058832;28;20203;-66
2022/12/10 03:52:52;;;;;;;12.90;10.13;;;;;;;;;;5060516;28;20219;-66
2022/12/10 03:55:19;;;;;;;12.53;10.63;;;;;;;;;;5062141;28;20320;-66
2022/12/10 03:57:47;;;;;;;14.27;9.93;;;;;;;;;;5058564;28;20278;-66
2022/12/10 04:00:15;;;;;;;11.83;9.73;;;;;;;;;;5064763;28;20210;-65
2022/12/10 04:02:42;;;;;;;12.40;9.53;;;;;;;;;;5054917;28;20278;-66
2022/12/10 04:05:09;;;;;;;12.73;9.77;;;;;;;;;;5063809;28;20211;-66
2022/12/10 04:07:37;;;;;;;13.30;10.13;;;;;;;;;;5060348;28;20199;-66
2022/12/10 04:10:06;;;;;;;12.70;9.50;;;;;;;;;;5053879;28;20214;-66
2022/12/10 04:12:33;;;;;;;14.67;10.50;;;;;;;;;;5060836;28;20202;-65
2022/12/10 04:17:45;;;;;;;12.63;10.57;;;;;;;;;;5057741;28;20256;-65
2022/12/10 04:28:24;;;;;;;14.50;11.90;;;;;;;;;;5060883;28;20197;-66
2022/12/10 04:30:51;;;;;;;13.63;11.40;;;;;;;;;;5056152;28;20202;-66
2022/12/10 04:33:18;;;;;;;15.00;11.93;;;;;;;;;;5058499;28;20203;-66
2022/12/10 04:35:46;;;;;;;15.63;11.50;;;;;;;;;;5057841;28;20206;-66
2022/12/10 04:38:13;;;;;;;14.27;11.70;;;;;;;;;;5067190;28;20207;-66
2022/12/10 04:40:41;;;;;;;15.63;12.30;;;;;;;;;;5065589;28;20206;-66
2022/12/10 04:43:08;;;;;;;17.53;12.27;;;;;;;;;;5039128;28;20228;-66
2022/12/10 04:45:36;;;;;;;17.93;12.23;;;;;;;;;;5044807;28;20250;-66
2022/12/10 04:48:03;;;;;;;15.77;11.93;;;;;;;;;;5039259;28;20206;-66
2022/12/10 04:50:30;;;;;;;14.87;11.70;;;;;;;;;;5033048;28;20206;-66
2022/12/10 04:52:57;;;;;;;17.30;13.17;;;;;;;;;;5047041;28;20816;-66
2022/12/10 04:55:25;;;;;;;14.87;12.37;;;;;;;;;;5041448;28;20197;-66
2022/12/10 04:57:53;;;;;;;16.23;11.67;;;;;;;;;;5043275;28;20211;-66
2022/12/10 05:00:20;;;;;;;16.30;12.37;;;;;;;;;;5039342;28;20370;-65
2022/12/10 05:02:49;;;;;;;15.50;11.93;;;;;;;;;;5033700;28;20203;-66
2022/12/10 05:05:16;;;;;;;18.30;12.63;;;;;;;;;;5038723;28;20258;-66
2022/12/10 05:07:43;;;;;;;17.67;12.63;;;;;;;;;;5044781;28;20215;-66
2022/12/10 05:10:11;;;;;;;15.80;11.87;;;;;;;;;;5033731;28;20206;-66
2022/12/10 05:12:38;;;;;;;15.07;12.07;;;;;;;;;;5033268;28;20204;-66
2022/12/10 05:15:07;;;;;;;17.40;12.60;;;;;;;;;;5046171;28;20196;-66
2022/12/10 05:17:34;;;;;;;16.77;12.00;;;;;;;;;;5035555;28;20205;-65
2022/12/10 05:20:01;;;;;;;16.30;12.03;;;;;;;;;;5044067;28;20204;-64
2022/12/10 05:25:13;;;;;;;14.53;11.53;;;;;;;;;;5038558;28;20222;-65
2022/12/10 05:27:41;;;;;;;15.97;12.10;;;;;;;;;;5043210;28;20202;-65
2022/12/10 05:30:10;;;;;;;14.50;11.50;;;;;;;;;;5038489;28;20200;-64
2022/12/10 05:32:37;;;;;;;17.50;12.00;;;;;;;;;;5032776;28;20196;-64
2022/12/10 05:35:05;;;;;;;17.00;12.63;;;;;;;;;;5044158;28;20206;-64
2022/12/10 05:37:32;;;;;;;15.57;11.37;;;;;;;;;;5047169;28;20207;-65
2022/12/10 05:39:59;;;;;;;13.53;10.77;;;;;;;;;;5034072;28;20219;-65
2022/12/10 05:42:26;;;;;;;15.90;12.57;;;;;;;;;;5054058;28;20234;-64
2022/12/10 05:44:54;;;;;;;13.23;10.27;;;;;;;;;;5063998;28;20226;-64
2022/12/10 05:47:22;;;;;;;15.60;10.93;;;;;;;;;;5058184;28;20249;-66
2022/12/10 05:49:49;;;;;;;12.40;10.70;;;;;;;;;;5067201;28;20213;-64
2022/12/10 05:52:16;;;;;;;14.93;11.07;;;;;;;;;;5062028;28;20217;-64
2022/12/10 05:54:43;;;;;;;15.47;11.63;;;;;;;;;;5065327;28;20214;-65
2022/12/10 05:57:11;;;;;;;15.13;11.13;;;;;;;;;;5061908;28;20201;-66
2022/12/10 05:59:38;;;;;;;14.53;10.53;;;;;;;;;;5065301;28;20206;-65
2022/12/10 06:02:05;;;;;;;15.63;11.73;;;;;;;;;;5059867;28;20206;-65
2022/12/10 06:04:33;;;;;;;14.40;10.87;;;;;;;;;;5057702;28;20200;-65
2022/12/10 06:07:01;;;;;;;15.00;11.50;;;;;;;;;;5061101;28;20210;-65
2022/12/10 06:09:28;;;;;;;13.77;10.57;;;;;;;;;;5065574;28;20207;-65
2022/12/10 06:11:55;;;;;;;15.03;11.10;;;;;;;;;;5059789;28;20205;-66
2022/12/10 06:14:22;;;;;;;14.70;11.00;;;;;;;;;;5066576;28;20445;-64
2022/12/10 06:16:49;;;;;;;15.17;11.63;;;;;;;;;;5063988;28;20197;-65
2022/12/10 06:19:16;;;;;;;13.83;10.53;;;;;;;;;;5061015;28;20207;-65
2022/12/10 06:21:45;;;;;;;14.23;11.27;;;;;;;;;;5069869;28;20209;-64
2022/12/10 06:24:12;;;;;;;14.13;11.17;;;;;;;;;;5063815;28;20230;-65
2022/12/10 06:26:39;;;;;;;16.87;10.73;;;;;;;;;;5065806;28;20222;-64
2022/12/10 06:29:06;;;;;;;17.97;11.63;;;;;;;;;;5065952;28;20294;-65
2022/12/10 06:31:33;;;;;;;15.40;11.40;;;;;;;;;;5060494;28;20202;-65
2022/12/10 06:34:00;;;;;;;17.07;11.27;;;;;;;;;;5063553;28;20200;-65
2022/12/10 06:36:27;;;;;;;14.80;11.63;;;;;;;;;;5063720;28;20198;-66
2022/12/10 06:38:56;;;;;;;15.13;12.00;;;;;;;;;;5071471;28;20194;-65
2022/12/10 06:41:23;;;;;;;15.00;11.87;;;;;;;;;;5066637;28;20328;-65
2022/12/10 06:43:50;;;;;;;14.87;11.77;;;;;;;;;;5062458;28;20286;-65
2022/12/10 06:46:18;;;;;;;14.60;11.17;;;;;;;;;;5055092;28;20288;-65
2022/12/10 06:48:46;;;;;;;14.90;11.27;;;;;;;;;;5056206;28;20218;-66
2022/12/10 06:51:13;;;;;;;14.90;11.20;;;;;;;;;;5055513;28;20204;-65
2022/12/10 06:53:41;;;;;;;14.97;11.63;;;;;;;;;;5051461;28;20213;-64
2022/12/10 06:56:13;;;;;;;15.60;11.43;;;;;;;;;;5060055;28;20199;-65
2022/12/10 06:58:40;;;;;;;15.50;11.70;;;;;;;;;;5062509;28;20485;-65
2022/12/10 07:01:08;;;;;;;14.67;11.17;;;;;;;;;;5059966;28;20210;-65
2022/12/10 07:03:35;;;;;;;17.37;12.67;;;;;;;;;;5063794;28;20210;-65
2022/12/10 07:06:03;;;;;;;19.13;12.27;;;;;;;;;;5062589;28;20207;-65
2022/12/10 07:08:30;;;;;;;17.00;12.93;;;;;;;;;;5059551;28;20290;-66
2022/12/10 07:10:57;;;;;;;16.03;12.07;;;;;;;;;;5059913;28;20214;-65
2022/12/10 07:13:26;;;;;;;15.40;11.70;;;;;;;;;;5058239;28;20241;-65
2022/12/10 07:15:53;;;;;;;15.03;11.57;;;;;;;;;;5059476;28;20202;-65
2022/12/10 07:18:20;;;;;;;15.13;11.37;;;;;;;;;;5063757;28;20203;-65
2022/12/10 07:20:47;;;;;;;15.40;11.27;;;;;;;;;;5065984;28;20203;-66
2022/12/10 07:23:15;;;;;;;16.90;10.33;;;;;;;;;;5062995;28;20191;-66
2022/12/10 07:25:42;;;;;;;13.43;10.03;;;;;;;;;;5054695;28;20223;-67
2022/12/10 07:28:09;;;;;;;15.17;11.53;;;;;;;;;;5055007;28;20207;-66
2022/12/10 07:30:38;;;;;;;14.57;11.10;;;;;;;;;;5064256;28;20195;-67
2022/12/10 07:33:05;;;;;;;14.63;10.87;;;;;;;;;;5061494;28;20209;-66
2022/12/10 07:35:32;;;;;;;15.60;11.33;;;;;;;;;;5054782;28;20203;-66
2022/12/10 07:37:59;;;;;;;14.20;11.33;;;;;;;;;;5059537;28;20203;-67
2022/12/10 07:40:27;;;;;;;13.63;10.77;;;;;;;;;;5062030;28;20207;-66
2022/12/10 07:42:54;;;;;;;15.10;10.73;;;;;;;;;;5066641;28;20242;-66
2022/12/10 07:45:21;;;;;;;16.23;11.07;;;;;;;;;;5057040;28;20199;-66
2022/12/10 07:47:49;;;;;;;13.90;11.07;;;;;;;;;;5058636;28;20208;-66
2022/12/10 07:50:17;;;;;;;14.20;10.73;;;;;;;;;;5057925;28;20211;-66
2022/12/10 07:52:44;;;;;;;15.10;10.20;;;;;;;;;;5058511;28;20252;-66
2022/12/10 07:55:11;;;;;;;16.30;10.93;;;;;;;;;;5063995;28;20210;-65
2022/12/10 07:57:38;;;;;;;13.77;10.23;;;;;;;;;;5069270;28;20202;-66
2022/12/10 08:00:06;;;;;;;12.87;9.90;;;;;;;;;;5067161;28;20194;-66
2022/12/10 08:02:33;;;;;;;13.73;10.57;;;;;;;;;;5064807;28;20205;-65
2022/12/10 08:05:01;;;;;;;14.13;10.47;;;;;;;;;;5065482;28;20214;-65
2022/12/10 08:07:28;;;;;;;18.67;13.03;;;;;;;;;;5058554;28;20203;-66
2022/12/10 08:09:56;;;;;;;36.63;22.93;;;;;;;;;;5063891;28;20195;-65
2022/12/10 08:12:23;;;;;;;26.80;17.70;;;;;;;;;;5057589;28;20229;-65
2022/12/10 08:14:50;;;;;;;15.07;11.33;;;;;;;;;;5065978;28;20285;-64
2022/12/10 08:17:17;;;;;;;13.87;10.03;;;;;;;;;;5060755;28;20203;-65
2022/12/10 08:19:44;;;;;;;15.60;9.77;;;;;;;;;;5065213;28;20201;-65
2022/12/10 08:22:13;;;;;;;12.57;9.77;;;;;;;;;;5054657;28;20206;-64
2022/12/10 08:24:40;;;;;;;12.83;9.63;;;;;;;;;;5053380;28;20199;-64
2022/12/10 08:27:07;;;;;;;15.17;9.93;;;;;;;;;;5059942;28;20229;-64
2022/12/10 08:29:34;;;;;;;13.97;9.87;;;;;;;;;;5056680;28;20214;-64
2022/12/10 08:32:01;;;;;;;12.70;9.03;;;;;;;;;;5059743;28;20400;-65
2022/12/10 08:34:28;;;;;;;13.50;9.70;;;;;;;;;;5056409;28;20213;-65
2022/12/10 08:36:55;;;;;;;11.90;8.70;;;;;;;;;;5053698;28;20194;-64
2022/12/10 08:39:24;;;;;;;13.00;9.27;;;;;;;;;;5055319;28;20488;-65
2022/12/10 08:41:51;;;;;;;11.70;9.23;;;;;;;;;;5054108;28;20234;-66
2022/12/10 08:44:18;;;;;;;10.97;8.97;;;;;;;;;;5058716;28;20213;-64
2022/12/10 08:46:45;;;;;;;11.97;8.67;;;;;;;;;;5057956;28;20269;-65
2022/12/10 08:49:12;;;;;;;11.20;8.40;;;;;;;;;;5059216;28;20207;-65
2022/12/10 08:51:40;;;;;;;11.80;8.60;;;;;;;;;;5063693;28;20202;-65
2022/12/10 08:54:07;;;;;;;11.20;9.03;;;;;;;;;;5058442;28;20203;-65
2022/12/10 08:56:36;;;;;;;13.07;9.30;;;;;;;;;;5058644;28;20190;-66
2022/12/10 08:59:03;;;;;;;14.57;9.83;;;;;;;;;;5066877;28;20207;-65
2022/12/10 09:01:30;;;;;;;11.33;8.83;;;;;;;;;;5054860;28;20210;-65
2022/12/10 09:03:57;;;;;;;13.23;9.43;;;;;;;;;;5070391;28;20199;-65
2022/12/10 09:06:25;;;;;;;11.07;8.50;;;;;;;;;;5063698;28;20210;-66
2022/12/10 09:08:52;;;;;;;12.50;9.07;;;;;;;;;;5062352;28;20277;-65
2022/12/10 09:11:20;;;;;;;10.90;8.60;;;;;;;;;;5059100;28;20203;-65
2022/12/10 09:13:49;;;;;;;11.43;9.13;;;;;;;;;;5062164;28;20207;-65
2022/12/10 09:16:16;;;;;;;12.53;8.73;;;;;;;;;;5060817;28;20188;-66
2022/12/10 09:18:44;;;;;;;15.27;10.57;;;;;;;;;;5058531;28;20207;-66
2022/12/10 09:21:13;;;;;;;11.97;9.07;;;;;;;;;;5066354;28;20207;-66
2022/12/10 09:23:40;;;;;;;11.50;9.10;;;;;;;;;;5063494;28;20195;-65
2022/12/10 09:26:08;;;;;;;11.70;8.97;;;;;;;;;;5064330;28;20223;-66
2022/12/10 09:28:35;;;;;;;11.13;8.77;;;;;;;;;;5059499;28;20230;-66
2022/12/10 09:31:05;;;;;;;11.70;8.87;;;;;;;;;;5068276;28;20207;-66
2022/12/10 09:33:32;;;;;;;11.27;8.70;;;;;;;;;;5065476;28;20205;-65
2022/12/10 09:36:00;;;;;;;10.73;8.70;;;;;;;;;;5060667;28;20203;-65
2022/12/10 09:38:27;;;;;;;12.53;9.60;;;;;;;;;;5057895;28;20217;-66
2022/12/10 09:41:01;;;;;;;10.87;8.13;;;;;;;;;;5061545;28;20203;-65
2022/12/10 09:43:34;;;;;;;10.57;8.10;;;;;;;;;;5058135;28;20209;-65
2022/12/10 09:46:08;;;;;;;13.77;9.03;;;;;;;;;;5059775;28;20280;-64
2022/12/10 09:48:42;;;;;;;11.17;8.47;;;;;;;;;;5066344;28;20195;-64
2022/12/10 09:51:12;;;;;;;11.60;8.80;;;;;;;;;;5069272;28;20207;-64
2022/12/10 09:53:40;;;;;;;12.43;9.63;;;;;;;;;;5056293;28;20344;-64
2022/12/10 09:56:08;;;;;;;10.23;8.63;;;;;;;;;;5061612;28;20195;-65
2022/12/10 09:58:36;;;;;;;10.73;8.37;;;;;;;;;;5061788;28;20195;-65
2022/12/10 10:01:06;;;;;;;11.87;8.87;;;;;;;;;;5062009;28;20230;-66
2022/12/10 10:03:36;;;;;;;12.00;9.03;;;;;;;;;;5060487;28;20206;-66
2022/12/10 10:06:04;;;;;;;11.03;8.60;;;;;;;;;;5069752;28;20213;-65
2022/12/10 10:08:34;;;;;;;12.00;8.80;;;;;;;;;;5061402;28;20214;-66
2022/12/10 10:11:02;;;;;;;12.50;9.63;;;;;;;;;;5062793;28;20202;-66
2022/12/10 10:13:32;;;;;;;11.20;9.00;;;;;;;;;;5062973;28;20199;-66
2022/12/10 10:16:02;;;;;;;13.00;9.77;;;;;;;;;;5058421;28;20265;-66
2022/12/10 10:18:33;;;;;;;10.87;8.57;;;;;;;;;;5055960;28;20204;-66
2022/12/10 10:21:01;;;;;;;12.00;8.40;;;;;;;;;;5059690;28;20200;-65
2022/12/10 10:23:28;;;;;;;10.87;8.93;;;;;;;;;;5065397;28;20204;-65
2022/12/10 10:25:55;;;;;;;10.87;8.47;;;;;;;;;;5060375;28;20206;-65
2022/12/10 10:28:24;;;;;;;10.37;8.03;;;;;;;;;;5059995;28;20206;-66
2022/12/10 10:30:53;;;;;;;11.07;8.53;;;;;;;;;;5065583;28;20206;-66
2022/12/10 10:33:20;;;;;;;12.87;8.20;;;;;;;;;;5056701;28;20225;-65
2022/12/10 10:35:49;;;;;;;11.13;8.37;;;;;;;;;;5060258;28;20204;-66
2022/12/10 10:38:19;;;;;;;10.90;8.77;;;;;;;;;;5056013;28;20200;-66
2022/12/10 10:40:47;;;;;;;12.17;9.60;;;;;;;;;;5062448;28;20222;-66
2022/12/10 10:43:16;;;;;;;10.67;9.17;;;;;;;;;;5064044;28;20207;-66
2022/12/10 10:45:44;;;;;;;12.77;8.93;;;;;;;;;;5054087;28;20218;-65
2022/12/10 10:48:13;;;;;;;11.13;8.63;;;;;;;;;;5054083;28;20234;-65
2022/12/10 10:50:42;;;;;;;11.03;8.97;;;;;;;;;;5061301;28;20188;-66
2022/12/10 10:53:28;;;;;;;10.93;9.30;;;;;;;;;;5072320;28;20205;-65
2022/12/10 10:55:56;;;;;;;12.73;9.93;;;;;;;;;;5054798;28;20203;-66
2022/12/10 10:58:24;;;;;;;11.10;9.50;;;;;;;;;;5067947;28;20200;-66
2022/12/10 11:00:55;;;;;;;11.63;8.23;;;;;;;;;;5069123;28;20208;-66
2022/12/10 11:03:23;;;;;;;9.87;8.33;;;;;;;;;;5054271;28;20223;-66
2022/12/10 11:05:50;;;;;;;11.07;8.77;;;;;;;;;;5058482;28;20234;-65
2022/12/10 11:08:20;;;;;;;10.90;9.27;;;;;;;;;;5064295;28;20252;-66
2022/12/10 11:10:52;;;;;;;15.47;9.97;;;;;;;;;;5054924;28;20199;-65
2022/12/10 11:13:21;;;;;;;12.83;9.47;;;;;;;;;;5058256;28;20199;-65
2022/12/10 11:15:55;;;;;;;11.80;9.00;;;;;;;;;;5054270;28;20203;-65
2022/12/10 11:18:27;;;;;;;13.70;9.97;;;;;;;;;;5065664;28;20202;-65
2022/12/10 11:20:58;;;;;;;14.33;10.07;;;;;;;;;;5065427;28;20195;-65
2022/12/10 11:23:28;;;;;;;13.80;11.10;;;;;;;;;;5054986;28;20221;-66
2022/12/10 11:25:59;;;;;;;13.67;9.97;;;;;;;;;;5061949;28;20256;-65
2022/12/10 11:28:33;;;;;;;12.97;10.20;;;;;;;;;;5072505;28;20222;-64
2022/12/10 11:31:07;;;;;;;11.50;8.40;;;;;;;;;;5053971;28;20218;-65
2022/12/10 11:33:41;;;;;;;11.70;9.07;;;;;;;;;;5068189;28;20194;-65
2022/12/10 11:36:18;;;;;;;10.90;8.70;;;;;;;;;;5073034;28;20238;-64
2022/12/10 11:38:47;;;;;;;12.13;9.27;;;;;;;;;;5059815;28;20199;-64
2022/12/10 11:41:21;;;;;;;11.70;9.10;;;;;;;;;;5061234;28;20233;-65
2022/12/10 11:43:53;;;;;;;14.50;12.40;;;;;;;;;;5073438;28;20195;-65
2022/12/10 11:46:31;;;;;;;13.83;9.93;;;;;;;;;;5062444;28;20222;-65
2022/12/10 11:49:06;;;;;;;10.70;8.57;;;;;;;;;;5060330;28;20206;-65
2022/12/10 11:51:37;;;;;;;10.43;8.73;;;;;;;;;;5052959;28;20191;-65
2022/12/10 11:54:26;;;;;;;11.23;9.00;;;;;;;;;;5066620;28;20214;-65
2022/12/10 11:56:58;;;;;;;10.67;8.67;;;;;;;;;;5059778;28;20203;-65
2022/12/10 11:59:29;;;;;;;12.50;9.30;;;;;;;;;;5056638;28;20199;-65
2022/12/10 12:02:00;;;;;;;12.87;9.43;;;;;;;;;;5055160;28;20207;-65
2022/12/10 12:04:32;;;;;;;12.63;10.50;;;;;;;;;;5057430;28;20210;-65
2022/12/10 12:07:18;;;;;;;10.90;8.60;;;;;;;;;;5056580;28;20235;-65
2022/12/10 12:09:55;;;;;;;12.03;8.77;;;;;;;;;;5064458;28;20202;-65
2022/12/10 12:12:30;;;;;;;11.57;8.60;;;;;;;;;;5054563;28;20202;-65
2022/12/10 12:15:00;;;;;;;13.47;10.17;;;;;;;;;;5069389;28;20224;-65
2022/12/10 12:17:29;;;;;;;11.93;9.33;;;;;;;;;;5068633;28;20194;-65
2022/12/10 12:19:59;;;;;;;11.70;8.97;;;;;;;;;;5052768;28;20249;-65
2022/12/10 12:22:27;;;;;;;13.07;9.50;;;;;;;;;;5056735;28;20200;-65
2022/12/10 12:24:56;;;;;;;10.70;8.97;;;;;;;;;;5066016;28;20222;-64
2022/12/10 12:27:27;;;;;;;10.27;8.83;;;;;;;;;;5054159;28;20219;-65
2022/12/10 12:30:01;;;;;;;11.53;8.70;;;;;;;;;;5061148;28;20606;-65
2022/12/10 12:32:30;;;;;;;10.30;8.40;;;;;;;;;;5050102;28;20219;-64
2022/12/10 12:35:00;;;;;;;12.20;9.43;;;;;;;;;;5054196;28;20210;-65
2022/12/10 12:37:31;;;;;;;16.03;13.80;;;;;;;;;;5056017;28;20199;-65
2022/12/10 12:40:01;;;;;;;14.37;11.50;;;;;;;;;;5059385;28;20199;-65
2022/12/10 12:42:33;;;;;;;20.33;16.80;;;;;;;;;;5055874;28;20231;-64
2022/12/10 12:45:03;;;;;;;17.23;14.57;;;;;;;;;;5050483;28;20235;-64
2022/12/10 12:47:33;;;;;;;18.80;14.87;;;;;;;;;;5050878;28;20231;-64
2022/12/10 12:50:03;;;;;;;24.93;18.37;;;;;;;;;;5055072;28;20199;-65
2022/12/10 12:52:34;;;;;;;25.77;18.93;;;;;;;;;;5056895;28;20237;-65
2022/12/10 12:55:03;;;;;;;21.30;17.43;;;;;;;;;;5057275;28;20207;-64
2022/12/10 12:57:35;;;;;;;14.50;12.07;;;;;;;;;;5056054;28;20219;-66
2022/12/10 13:00:04;;;;;;;11.20;9.93;;;;;;;;;;5051657;28;20238;-66
2022/12/10 13:02:44;;;;;;;12.83;9.67;;;;;;;;;;5060932;28;20213;-65
2022/12/10 13:05:14;;;;;;;11.47;9.97;;;;;;;;;;5061208;28;20202;-65
2022/12/10 13:07:42;;;;;;;15.37;11.97;;;;;;;;;;5061016;28;22211;-65
2022/12/10 13:10:11;;;;;;;14.23;10.83;;;;;;;;;;5063915;28;20195;-65
2022/12/10 13:12:48;;;;;;;13.13;9.07;;;;;;;;;;5066838;28;20203;-64
2022/12/10 13:15:18;;;;;;;13.47;10.33;;;;;;;;;;5062777;28;20206;-64
2022/12/10 13:18:00;;;;;;;14.07;12.13;;;;;;;;;;5064803;28;20191;-64
2022/12/10 13:20:31;;;;;;;14.87;13.00;;;;;;;;;;5061373;28;20196;-64
2022/12/10 13:22:59;;;;;;;15.27;12.17;;;;;;;;;;5041210;28;20246;-65
2022/12/10 13:25:40;;;;;;;22.00;16.30;;;;;;;;;;5047727;28;20208;-65
2022/12/10 13:28:23;;;;;;;17.53;13.10;;;;;;;;;;5047942;28;20234;-65
2022/12/10 13:31:05;;;;;;;15.63;13.20;;;;;;;;;;5049694;28;20199;-65
2022/12/10 13:33:45;;;;;;;25.80;17.23;;;;;;;;;;5044585;28;20211;-65
2022/12/10 13:36:12;;;;;;;17.23;12.97;;;;;;;;;;5048003;28;20201;-65
2022/12/10 13:39:02;;;;;;;17.77;14.03;;;;;;;;;;5045778;28;20203;-66
2022/12/10 13:44:32;;;;;;;15.17;12.10;;;;;;;;;;5044859;28;20199;-65
2022/12/10 13:47:01;;;;;;;18.83;13.33;;;;;;;;;;5048209;28;20225;-65
2022/12/10 13:49:29;;;;;;;16.80;11.70;;;;;;;;;;5048778;28;20200;-64
2022/12/10 13:51:58;;;;;;;27.57;18.70;;;;;;;;;;5042805;28;20287;-65
2022/12/10 13:54:35;;;;;;;25.40;17.03;;;;;;;;;;5050395;28;20212;-64
2022/12/10 13:57:07;;;;;;;64.53;34.97;;;;;;;;;;5046099;28;20203;-64
2022/12/10 13:59:42;;;;;;;32.27;19.20;;;;;;;;;;5045734;28;20206;-65
2022/12/10 14:02:21;;;;;;;20.70;14.33;;;;;;;;;;5043672;28;20207;-64
2022/12/10 14:04:56;;;;;;;19.97;12.90;;;;;;;;;;5043890;28;20199;-64
2022/12/10 14:07:24;;;;;;;31.43;20.23;;;;;;;;;;5042986;28;20230;-64
2022/12/10 14:09:52;;;;;;;25.57;16.57;;;;;;;;;;5048046;28;20470;-65
2022/12/10 14:12:22;;;;;;;24.37;15.73;;;;;;;;;;5044932;28;20210;-64
2022/12/10 14:14:54;;;;;;;25.40;16.20;;;;;;;;;;5045336;28;20200;-64
2022/12/10 14:17:22;;;;;;;20.00;13.20;;;;;;;;;;5045646;28;20563;-65
2022/12/10 14:19:50;;;;;;;15.13;11.83;;;;;;;;;;5046798;28;20214;-65
2022/12/10 14:22:19;;;;;;;23.67;15.50;;;;;;;;;;5044045;28;20207;-65
2022/12/10 14:24:49;;;;;;;21.20;14.90;;;;;;;;;;5046946;28;20204;-64
2022/12/10 14:27:19;;;;;;;23.10;15.57;;;;;;;;;;5049186;28;20203;-65
2022/12/10 14:29:47;;;;;;;51.83;35.97;;;;;;;;;;5040579;28;20225;-64
2022/12/10 14:32:16;;;;;;;97.03;60.63;;;;;;;;;;5042774;28;20298;-65
2022/12/10 14:34:43;;;;;;;50.30;36.70;;;;;;;;;;5045506;28;20257;-65
2022/12/10 14:37:13;;;;;;;42.37;29.57;;;;;;;;;;5048182;28;20199;-65
2022/12/10 14:39:40;;;;;;;41.37;31.03;;;;;;;;;;5038867;28;20196;-66
2022/12/10 14:42:08;;;;;;;75.90;51.97;;;;;;;;;;5042057;28;20243;-66
2022/12/10 14:44:37;;;;;;;78.20;51.67;;;;;;;;;;5047473;28;20200;-66
2022/12/10 14:47:06;;;;;;;27.90;19.43;;;;;;;;;;5049257;28;20203;-66
2022/12/10 14:49:40;;;;;;;26.77;19.57;;;;;;;;;;5045853;28;20201;-66